createdAt,value
2022-10-17T00:01:05.257Z,9.26
2022-10-17T00:12:08.308Z,9.16
2022-10-17T00:23:04.132Z,9.06
2022-10-17T00:34:01.205Z,8.96
2022-10-17T00:45:02.462Z,8.86
2022-10-17T00:56:04.990Z,8.86
2022-10-17T01:07:05.317Z,8.77
2022-10-17T01:17:43.834Z,8.77
2022-10-17T01:28:23.231Z,8.67
2022-10-17T01:39:19.414Z,8.57
2022-10-17T01:50:15.333Z,8.47
2022-10-17T02:00:53.821Z,8.57
2022-10-17T02:11:33.323Z,8.37
2022-10-17T02:22:13.452Z,8.18
2022-10-17T02:33:15.556Z,8.08
2022-10-17T02:44:18.198Z,8.08
2022-10-17T02:55:21.022Z,8.18
2022-10-17T03:06:25.030Z,8.08
2022-10-17T03:17:05.072Z,8.08
2022-10-17T03:28:08.847Z,7.88
2022-10-17T03:38:49.668Z,7.89
2022-10-17T03:49:48.575Z,7.79
2022-10-17T04:00:51.007Z,7.89
2022-10-17T04:11:54.138Z,7.69
2022-10-17T04:22:59.429Z,7.59
2022-10-17T04:33:57.484Z,7.79
2022-10-17T04:45:00.167Z,7.69
2022-10-17T04:56:15.405Z,7.69
2022-10-17T05:07:26.780Z,7.69
2022-10-17T05:18:28.214Z,7.69
2022-10-17T05:29:34.813Z,7.69
2022-10-17T05:40:40.615Z,7.89
2022-10-17T06:02:39.404Z,8.28
2022-10-17T06:13:39.830Z,8.38
2022-10-17T06:24:42.417Z,8.77
2022-10-17T06:35:38.857Z,9.26
2022-10-17T06:46:42.763Z,9.74
2022-10-17T06:57:47.775Z,10.33
2022-10-17T07:08:50.240Z,10.82
2022-10-17T07:19:52.977Z,11.21
2022-10-17T07:30:53.741Z,11.89
2022-10-17T07:41:54.662Z,12.38
2022-10-17T07:52:56.834Z,12.77
2022-10-17T08:03:58.931Z,13.36
2022-10-17T08:15:01.774Z,13.85
2022-10-17T08:26:04.270Z,14.44
2022-10-17T08:37:01.931Z,14.93
2022-10-17T08:48:03.856Z,15.42
2022-10-17T08:59:04.387Z,16.00
2022-10-17T09:09:44.756Z,16.59
2022-10-17T09:20:23.224Z,17.18
2022-10-17T09:31:24.026Z,17.67
2022-10-17T09:42:19.756Z,18.45
2022-10-17T09:52:56.098Z,19.23
2022-10-17T10:03:56.499Z,19.52
2022-10-17T10:14:59.159Z,19.92
2022-10-17T10:26:00.787Z,20.21
2022-10-17T10:37:00.286Z,21.09
2022-10-17T10:48:01.575Z,22.95
2022-10-17T10:59:01.819Z,26.27
2022-10-17T11:10:00.958Z,27.35
2022-10-17T11:20:58.843Z,27.44
2022-10-17T11:31:59.081Z,28.03
2022-10-17T11:42:59.274Z,28.42
2022-10-17T11:54:00.836Z,30.48
2022-10-17T12:04:59.049Z,30.57
2022-10-17T12:15:59.339Z,29.69
2022-10-17T12:26:46.518Z,31.36
2022-10-17T12:37:45.933Z,32.14
2022-10-17T12:48:46.258Z,32.24
2022-10-17T12:59:46.018Z,31.26
2022-10-17T13:10:45.230Z,30.77
2022-10-17T13:21:40.207Z,30.09
2022-10-17T13:32:36.525Z,30.48
2022-10-17T13:43:33.633Z,29.99
2022-10-17T13:54:29.417Z,24.61
2022-10-17T14:05:26.279Z,22.95
2022-10-17T14:16:23.448Z,22.16
2022-10-17T14:27:08.862Z,21.38
2022-10-17T14:38:06.410Z,20.99
2022-10-17T14:49:02.659Z,20.50
2022-10-17T14:59:57.731Z,20.31
2022-10-17T15:10:56.317Z,19.72
2022-10-17T15:21:54.149Z,19.23
2022-10-17T15:32:52.536Z,18.55
2022-10-17T15:43:50.450Z,17.96
2022-10-17T15:54:51.853Z,17.27
2022-10-17T16:05:48.503Z,16.69
2022-10-17T16:16:41.532Z,16.10
2022-10-17T16:27:33.804Z,15.51
2022-10-17T16:38:07.825Z,15.12
2022-10-17T16:49:02.635Z,14.83
2022-10-17T16:59:36.778Z,14.54
2022-10-17T17:10:31.323Z,14.24
2022-10-17T17:21:06.131Z,14.05
2022-10-17T17:32:05.785Z,13.85
2022-10-17T17:43:02.170Z,13.56
2022-10-17T17:53:37.072Z,13.36
2022-10-17T18:04:19.881Z,13.17
2022-10-17T18:15:10.287Z,12.97
2022-10-17T18:26:06.703Z,12.77
2022-10-17T18:37:03.749Z,12.58
2022-10-17T18:47:54.325Z,12.48
2022-10-17T18:58:54.107Z,12.29
2022-10-17T19:09:39.778Z,12.09
2022-10-17T19:20:39.183Z,11.99
2022-10-17T19:31:38.702Z,11.99
2022-10-17T19:42:34.315Z,11.80
2022-10-17T19:53:31.424Z,11.70
2022-10-17T20:04:23.262Z,11.50
2022-10-17T20:15:15.505Z,11.41
2022-10-17T20:26:26.064Z,11.31
2022-10-17T20:37:19.070Z,11.11
2022-10-17T20:48:16.551Z,11.01
2022-10-17T20:58:52.398Z,10.82
2022-10-17T21:09:53.529Z,10.72
2022-10-17T21:20:29.585Z,10.62
2022-10-17T21:31:30.948Z,10.53
2022-10-17T21:42:41.830Z,10.53
2022-10-17T21:53:42.021Z,10.33
2022-10-17T22:04:42.998Z,10.23
2022-10-17T22:15:44.322Z,10.23
2022-10-17T22:26:43.936Z,10.04
2022-10-17T22:37:44.164Z,10.04
2022-10-17T22:48:44.334Z,9.84
2022-10-17T22:59:43.556Z,9.74
2022-10-17T23:10:44.456Z,9.74
2022-10-17T23:21:46.220Z,9.55
2022-10-17T23:32:48.243Z,9.55
2022-10-17T23:43:48.694Z,9.45
2022-10-17T23:54:49.106Z,9.45
